• Join FlightAware (Why Join?)
  • Login
  • US Flag 
12:01PM EDT


 

Airport Tracker/Info


-or-


 

Live Flight TrackerFlight Track Log ✈ UAL33 ✈ 06-Jun-2013 ✈ KORD - KIAH

Flight Track Log - Related Links

Times and Time Zones

All times are in EDT time to prevent confusion due to time zone crossing. See the UAL33 flight status page for this flight to view local times or setup timezone preferences in your user account.

Time Position Orientation Groundspeed Altitude Reporting Facility
EDT Latitude Longitude Course Direction KTS MPH feet Rate Location/Type
09:50PM 41.9830 -87.9250 319° Northwest 154 177 700  Level FlightAware
09:50PM 41.9990 -87.9440 319° Northwest 161 185 2,000 2,580 Climbing FlightAware
09:50PM 42.0070 -87.9520 323° Northwest 181 208 2,500 2,100 Climbing FlightAware
09:51PM 42.0290 -87.9740 323° Northwest 231 266 3,400 2,400 Climbing FlightAware
09:51PM 42.0520 -87.9960 325° Northwest 254 292 4,800 3,600 Climbing FlightAware
09:52PM 42.0800 -88.0200 328° Northwest 265 305 6,600 4,500 Climbing FlightAware
09:52PM 42.0980 -88.0350 328° Northwest 269 310 7,800 4,020 Climbing FlightAware
09:52PM 42.1260 -88.0600 326° Northwest 279 321 9,500 3,660 Climbing FlightAware
09:53PM 42.1360 -88.0770 308° West 283 326 10,200 3,540 Climbing FlightAware
09:53PM 42.1420 -88.1110 283° West 289 333 11,400 3,300 Climbing FlightAware
09:54PM 42.1250 -88.1780 251° West 297 342 13,500 3,120 Climbing FlightAware
09:54PM 42.0940 -88.2500 240° Southwest 328 377 15,700 3,420 Climbing FlightAware
09:55PM 42.0570 -88.3090 230° Southwest 337 388 18,100 3,720 Climbing FlightAware
09:56PM 42.0120 -88.3810 230° Southwest 345 397 20,800 3,540 Climbing FlightAware
09:56PM 41.9700 -88.4510 231° Southwest 351 404 23,200 2,640 Climbing FlightAware
09:57PM 41.9250 -88.5260 231° Southwest 384 442 24,500 1,560 Climbing FlightAware
09:58PM 41.8820 -88.6250 240° Southwest 421 484 25,500 1,440 Climbing FlightAware
09:58PM 41.8470 -88.7100 241° Southwest 440 506 26,500 1,620 Climbing FlightAware
09:59PM 41.8030 -88.8170 241° Southwest 459 528 27,700 2,040 Climbing FlightAware
10:00PM 41.7570 -88.9270 241° Southwest 458 527 29,500 2,700 Climbing FlightAware
10:00PM 41.7160 -89.0260 241° Southwest 447 514 31,500 3,360 Climbing FlightAware
10:01PM 41.6720 -89.1300 240° Southwest 412 474 34,400 3,060 Climbing FlightAware
10:02PM 41.6390 -89.2090 241° Southwest 408 470 35,700 1,920 Climbing FlightAware
10:03PM 41.5970 -89.3090 241° Southwest 406 467 37,100 1,440 Climbing FlightAware
10:03PM 41.5560 -89.4050 240° Southwest 413 475 37,900 960 Climbing FlightAware
10:04PM 41.5180 -89.4960 241° Southwest 421 484 38,500 900 Climbing FlightAware
10:05PM 41.4840 -89.5760 240° Southwest 422 486 39,100 780 Climbing FlightAware
10:05PM 41.4350 -89.6920 241° Southwest 433 498 39,700 600 Climbing FlightAware
10:06PM 41.3910 -89.7830 237° Southwest 443 510 40,000 180 Climbing FlightAware
10:07PM 41.3280 -89.8540 220° Southwest 448 516 40,000  Level FlightAware
10:07PM 41.2590 -89.9200 216° Southwest 446 513 40,000  Level FlightAware
10:08PM 41.1840 -89.9920 216° Southwest 446 513 40,000  Level FlightAware
10:09PM 41.1180 -90.0560 216° Southwest 447 514 40,000  Level FlightAware
10:10PM 41.0510 -90.1190 215° Southwest 446 513 40,000  Level FlightAware
10:10PM 40.9800 -90.1870 216° Southwest 444 511 40,000  Level FlightAware
10:11PM 40.8920 -90.2710 216° Southwest 442 509 40,000  Level FlightAware
10:12PM 40.8270 -90.3320 215° Southwest 443 510 40,000  Level FlightAware
10:13PM 40.7510 -90.4040 216° Southwest 445 512 40,000  Level FlightAware
10:13PM 40.6890 -90.4620 215° Southwest 446 513 40,000  Level FlightAware
10:14PM 40.6140 -90.5320 215° Southwest 440 506 40,000  Level FlightAware
10:15PM 40.5460 -90.5960 216° Southwest 434 499 40,000  Level FlightAware
10:15PM 40.4720 -90.6650 215° Southwest 432 497 40,000  Level FlightAware
10:16PM 40.4110 -90.7220 215° Southwest 433 498 40,000  Level FlightAware
10:17PM 40.3410 -90.7870 215° Southwest 433 498 40,000  Level FlightAware
10:17PM 40.2700 -90.8530 215° Southwest 433 498 40,000  Level FlightAware
10:18PM 40.1990 -90.9190 215° Southwest 432 497 40,000  Level FlightAware
10:19PM 40.1380 -90.9750 215° Southwest 431 496 40,000  Level FlightAware
10:20PM 40.0610 -91.0460 215° Southwest 431 496 40,000  Level FlightAware
10:20PM 39.9860 -91.1140 215° Southwest 431 496 40,000  Level FlightAware
10:21PM 39.9080 -91.1860 215° Southwest 432 497 40,000  Level FlightAware
10:22PM 39.8480 -91.2410 215° Southwest 432 497 40,000  Level FlightAware
10:23PM 39.7650 -91.3160 215° Southwest 430 495 40,000  Level FlightAware
10:23PM 39.7050 -91.3710 215° Southwest 430 495 40,000  Level FlightAware
10:24PM 39.6090 -91.4560 214° Southwest 429 494 40,000  Level FlightAware
10:25PM 39.5460 -91.5140 215° Southwest 429 494 40,000  Level FlightAware
10:26PM 39.4720 -91.5810 215° Southwest 430 495 40,000  Level FlightAware
10:26PM 39.4100 -91.6360 214° Southwest 431 496 40,000  Level FlightAware
10:27PM 39.3160 -91.7210 215° Southwest 430 495 40,000  Level FlightAware
10:28PM 39.2610 -91.7680 213° Southwest 430 495 40,000  Level FlightAware
10:29PM 39.1920 -91.8280 214° Southwest 430 495 40,000  Level FlightAware
10:29PM 39.1040 -91.9100 216° Southwest 432 497 40,000  Level FlightAware
10:30PM 39.0310 -91.9740 214° Southwest 431 496 40,000  Level FlightAware
10:31PM 38.9660 -92.0310 214° Southwest 431 496 40,000  Level FlightAware
10:31PM 38.8940 -92.0950 215° Southwest 434 499 40,000  Level FlightAware
10:32PM 38.8180 -92.1620 214° Southwest 434 499 40,000  Level FlightAware
10:33PM 38.7310 -92.2380 214° Southwest 436 502 40,000  Level FlightAware
10:34PM 38.6780 -92.2840 214° Southwest 436 502 40,000  Level FlightAware
10:35PM 38.6100 -92.3430 214° Southwest 436 502 40,000  Level FlightAware
10:35PM 38.5240 -92.4190 215° Southwest 436 502 40,000  Level FlightAware
10:36PM 38.4520 -92.4810 214° Southwest 436 502 40,000  Level FlightAware
10:37PM 38.3830 -92.5410 214° Southwest 436 502 40,000  Level FlightAware
10:37PM 38.3110 -92.6030 214° Southwest 437 503 40,000  Level FlightAware
10:38PM 38.2440 -92.6610 214° Southwest 437 503 40,000  Level FlightAware
10:39PM 38.1710 -92.7230 214° Southwest 437 503 40,000  Level FlightAware
10:39PM 38.1030 -92.7820 214° Southwest 437 503 40,000  Level FlightAware
10:40PM 38.0300 -92.8450 214° Southwest 439 505 40,000  Level FlightAware
10:41PM 37.9620 -92.9030 214° Southwest 440 506 40,000  Level FlightAware
10:41PM 37.8910 -92.9630 214° Southwest 440 506 40,000  Level FlightAware
10:42PM 37.8160 -93.0270 214° Southwest 441 507 40,000  Level FlightAware
10:43PM 37.7530 -93.0810 214° Southwest 443 510 40,000  Level FlightAware
10:44PM 37.6740 -93.1470 213° Southwest 444 511 40,000  Level FlightAware
10:44PM 37.6050 -93.2050 214° Southwest 444 511 40,000  Level FlightAware
10:45PM 37.5350 -93.2650 214° Southwest 444 511 40,000  Level FlightAware
10:46PM 37.4620 -93.3260 214° Southwest 445 512 40,000  Level FlightAware
10:46PM 37.3960 -93.3800 213° Southwest 445 512 40,000  Level FlightAware
10:47PM 37.3180 -93.4460 214° Southwest 447 514 40,000  Level FlightAware
10:48PM 37.2430 -93.5090 214° Southwest 447 514 40,000  Level FlightAware
10:48PM 37.1720 -93.5680 214° Southwest 447 514 40,000  Level FlightAware
10:49PM 37.1030 -93.6250 213° Southwest 447 514 40,000  Level FlightAware
10:50PM 37.0240 -93.6900 213° Southwest 448 516 40,000  Level FlightAware
10:51PM 36.9550 -93.7480 214° Southwest 448 516 40,000  Level FlightAware
10:51PM 36.8780 -93.8110 213° Southwest 448 516 40,000  Level FlightAware
10:52PM 36.8090 -93.8670 213° Southwest 448 516 40,000  Level FlightAware
10:53PM 36.7360 -93.9280 214° Southwest 449 517 40,000  Level FlightAware
10:53PM 36.6610 -93.9890 213° Southwest 447 514 40,000  Level FlightAware
10:54PM 36.5940 -94.0430 213° Southwest 449 517 40,000  Level FlightAware
10:55PM 36.5180 -94.1050 213° Southwest 451 519 40,000  Level FlightAware
10:55PM 36.4410 -94.1680 213° Southwest 450 518 40,000  Level FlightAware
10:56PM 36.3720 -94.2240 213° Southwest 449 517 40,000  Level FlightAware
10:57PM 36.2980 -94.2840 213° Southwest 450 518 40,000  Level FlightAware
10:58PM 36.2210 -94.3460 213° Southwest 449 517 40,000  Level FlightAware
10:58PM 36.1550 -94.3990 213° Southwest 450 518 40,000  Level FlightAware
10:59PM 36.0760 -94.4630 213° Southwest 450 518 40,000  Level FlightAware
11:00PM 36.0080 -94.5180 213° Southwest 450 518 40,000  Level FlightAware
11:00PM 35.9320 -94.5780 213° Southwest 450 518 40,000  Level FlightAware
11:01PM 35.8560 -94.6390 213° Southwest 451 519 40,000  Level FlightAware
11:02PM 35.7890 -94.6920 213° Southwest 449 517 40,000  Level FlightAware
11:02PM 35.7100 -94.7550 213° Southwest 451 519 40,000  Level FlightAware
11:03PM 35.6490 -94.8040 213° Southwest 451 519 40,000  Level FlightAware
11:04PM 35.5800 -94.8580 212° Southwest 451 519 40,000  Level FlightAware
11:05PM 35.4950 -94.9250 213° Southwest 452 520 40,000  Level FlightAware
11:05PM 35.4140 -94.9890 213° Southwest 453 521 40,000  Level FlightAware
11:06PM 35.3570 -95.0340 213° Southwest 453 521 40,000  Level FlightAware
11:07PM 35.2610 -95.1080 212° Southwest 453 521 40,000  Level FlightAware
11:08PM 35.2060 -95.1500 212° Southwest 453 521 40,000  Level FlightAware
11:09PM 35.1320 -95.2060 212° Southwest 453 521 40,000  Level FlightAware
11:09PM 35.0810 -95.2450 212° Southwest 453 521 40,000  Level FlightAware
11:10PM 34.8900 -95.3980 213° Southwest 462 532 40,000  Level FlightAware
11:11PM 34.7900 -95.4760 213° Southwest 463 533 40,000  Level FlightAware
11:12PM 34.7110 -95.5360 212° Southwest 463 533 40,000  Level FlightAware
11:12PM 34.6370 -95.5930 212° Southwest 464 534 40,000  Level FlightAware
11:13PM 34.5560 -95.6560 213° Southwest 465 535 40,000  Level FlightAware
11:14PM 34.4830 -95.7110 212° Southwest 465 535 40,000  Level FlightAware
11:15PM 34.4210 -95.7590 213° Southwest 465 535 40,000  Level FlightAware
11:15PM 34.3280 -95.8300 212° Southwest 464 534 40,000  Level FlightAware
11:16PM 34.2560 -95.8850 212° Southwest 466 536 40,000  Level FlightAware
11:17PM 34.1820 -95.9410 212° Southwest 466 536 40,000  Level FlightAware
11:17PM 34.1020 -96.0020 212° Southwest 464 534 40,000  Level FlightAware
11:18PM 34.0240 -96.0600 212° Southwest 464 534 40,000  Level FlightAware
11:19PM 33.9490 -96.1180 213° Southwest 465 535 40,000  Level FlightAware
11:19PM 33.8730 -96.1750 212° Southwest 462 532 40,000  Level FlightAware
11:20PM 33.8301 -96.2068 212° Southwest 464 534 40,000  Level FlightAware ADS-B
11:20PM 33.7663 -96.2547 212° Southwest 464 534 40,000  Level FlightAware ADS-B
11:21PM 33.6677 -96.3286 212° Southwest 461 531 40,000  Level FlightAware ADS-B
11:22PM 33.6121 -96.3702 212° Southwest 464 534 40,000  Level FlightAware ADS-B
11:23PM 33.5273 -96.4335 212° Southwest 464 534 40,000  Level FlightAware ADS-B
11:23PM 33.4708 -96.4756 212° Southwest 464 534 40,000  Level FlightAware ADS-B
11:24PM 33.3689 -96.5511 212° Southwest 464 534 40,000  Level FlightAware ADS-B
11:25PM 33.3087 -96.5958 212° Southwest 465 535 40,000  Level FlightAware ADS-B
11:25PM 33.2532 -96.6369 212° Southwest 464 534 40,000  Level FlightAware ADS-B
11:26PM 33.1920 -96.6820 212° Southwest 463 533 40,000  Level FlightAware ADS-B
11:26PM 33.1350 -96.7240 212° Southwest 461 531 40,000  Level FlightAware
11:27PM 33.0472 -96.7888 212° Southwest 462 532 40,000  Level FlightAware ADS-B
11:28PM 32.9878 -96.8325 212° Southwest 463 533 40,000  Level FlightAware ADS-B
11:28PM 32.8990 -96.8880 208° Southwest 475 547 40,000  Level FlightAware
11:29PM 32.8280 -96.8860 179° South 492 566 40,000 -300 Level FlightAware
11:30PM 32.7170 -96.8540 166° South 495 570 39,600 -1,140 Descending FlightAware
11:31PM 32.5270 -96.7990 166° South 495 570 37,600 -1,380 Descending FlightAware
11:32PM 32.4638 -96.7814 167° South 499 574 37,100 -660 Descending FlightAware ADS-B
11:32PM 32.3958 -96.7620 166° South 500 575 37,000 -120 Descending FlightAware ADS-B
11:33PM 32.2552 -96.7219 166° South 498 573 37,000  Level FlightAware ADS-B
11:34PM 32.1131 -96.6816 166° South 500 575 37,000  Level FlightAware ADS-B
11:35PM 32.0448 -96.6624 167° South 499 574 37,000  Level FlightAware ADS-B
11:35PM 31.9757 -96.6428 166° South 498 573 37,000  Level FlightAware ADS-B
11:36PM 31.9085 -96.6238 167° South 498 573 37,000 -540 Level FlightAware ADS-B
11:36PM 31.8399 -96.6044 166° South 499 574 36,500 -1,680 Descending FlightAware ADS-B
11:38PM 31.6296 -96.5454 167° South 511 588 33,600 -2,100 Descending FlightAware ADS-B
11:38PM 31.5596 -96.5255 166° South 511 588 32,200 -2,580 Descending FlightAware ADS-B
11:39PM 31.4280 -96.4797 162° South 509 586 29,900 -2,640 Descending FlightAware ADS-B
11:40PM 31.3432 -96.4368 154° Southeast 530 610 28,000 -2,640 Descending FlightAware ADS-B
11:40PM 31.2785 -96.3950 151° Southeast 524 603 26,900 -2,280 Descending FlightAware ADS-B
11:41PM 31.1517 -96.3126 151° Southeast 509 586 24,600 -2,280 Descending FlightAware ADS-B
11:42PM 31.0894 -96.2721 151° Southeast 502 578 23,500 -2,220 Descending FlightAware ADS-B
11:44PM 30.9012 -96.1501 151° Southeast 489 563 20,100 -2,100 Descending FlightAware ADS-B
11:45PM 30.7259 -96.0370 151° Southeast 444 511 17,000 -1,980 Descending FlightAware ADS-B
11:47PM 30.5672 -95.9355 151° Southeast 407 468 14,100 -1,800 Descending FlightAware ADS-B
11:48PM 30.4598 -95.8651 149° Southeast 385 443 12,200 -1,260 Descending FlightAware ADS-B
11:48PM 30.4034 -95.8102 138° Southeast 350 403 11,800 -960 Descending FlightAware ADS-B
11:50PM 30.2985 -95.7009 138° Southeast 323 372 10,100 -1,140 Descending FlightAware ADS-B
11:50PM 30.2815 -95.6831 138° Southeast 321 369 9,800 -1,320 Descending FlightAware ADS-B
11:51PM 30.2311 -95.6304 138° Southeast 321 369 8,800 -1,380 Descending FlightAware ADS-B
11:52PM 30.1966 -95.5944 138° Southeast 320 368 8,100 -1,260 Descending FlightAware ADS-B
11:52PM 30.1626 -95.5592 138° Southeast 317 365 7,500 -1,080 Descending FlightAware ADS-B
11:53PM 30.1292 -95.5241 138° Southeast 313 360 7,000 -840 Descending FlightAware ADS-B
11:53PM 30.1228 -95.5173 137° Southeast 312 359 7,000  Level FlightAware ADS-B
11:53PM 30.1135 -95.5038 123° Southeast 310 357 7,000  Level FlightAware ADS-B
11:53PM 30.1081 -95.4893 110° East 309 356 7,000  Level FlightAware ADS-B
11:53PM 30.1071 -95.4845 104° East 308 354 7,000  Level FlightAware ADS-B
11:53PM 30.1059 -95.4448 90° East 293 337 7,000  Level FlightAware ADS-B
11:54PM 30.1058 -95.4211 90° East 279 321 7,000  Level FlightAware ADS-B
11:54PM 30.1060 -95.3563 90° East 259 298 7,000  Level FlightAware ADS-B
11:55PM 30.1061 -95.2942 90° East 257 296 7,000  Level FlightAware ADS-B
11:55PM 30.1062 -95.2736 90° East 258 297 7,000  Level FlightAware ADS-B
11:56PM 30.1061 -95.2293 90° East 257 296 7,000 -300 Level FlightAware ADS-B
11:56PM 30.1061 -95.2090 90° East 257 296 6,800 -960 Descending FlightAware ADS-B
11:56PM 30.1061 -95.1939 90° East 259 298 6,600 -960 Descending FlightAware ADS-B
11:57PM 30.1059 -95.1121 90° East 252 290 5,700 -900 Descending FlightAware ADS-B